Historique des mesures à Cassis (13260), France
Quotidien Résumé Fevrier 13, 2018 Unités:  US    Métrique   Métrique/US
« Précédent (Jour)
Suivant (Jour) »
Quotidien Hebdomadaire Mensuel Annuel Période au choix
  Maximum: Minimum: Moyenne:
Température: TemperatureC °F 3.1 °F 5.7 °F
Point de rosée: DewpointC °F -7.8 °F -5.2 °F
Humidité: Humidity % 35 % 42 %
Vitesse du vent: WindSpeedKMH mph 0.0 mph 5.3 mph
Rafales: WindSpeedGustKMH mph - -
Vent:- - WSW
Pression: PressurehPa in 1007.7 in -
Précipitations: 0.0 in    
Historical Graphs
 
 
Mesures pour : Fevrier 13, 2018
Heure Temperature Point de rosée Pression Vent Vitesse du vent Rafales Humidité Pluie (par heure) Conditions
TemperatureC °F DewpointC °F PressurehPa in Calm     Humidity % HourlyPrecipMM in SoftwareType W/m2
00:12 4.4 °F -4.9 °F 1009.7 in NW 15.8 mph 15.8 mph 51 % 0.0 in open2300-1.11 W/m2
01:12 4.1 °F -4.9 °F 1009.7 in WNW 15.8 mph 18.3 mph 52 % 0.0 in open2300-1.11 W/m2
02:12 3.3 °F -5.2 °F 1010.0 in Calm   4.7 mph 54 % 0.0 in open2300-1.11 W/m2
03:12 3.1 °F -5.8 °F 1009.7 in WNW 12.2 mph 15.8 mph 52 % 0.0 in open2300-1.11 W/m2
04:12 4.1 °F -6.9 °F 1009.7 in NNW 4.0 mph 7.2 mph 45 % 0.0 in open2300-1.11 W/m2
05:12 4.3 °F -7.3 °F 1009.7 in WNW 6.1 mph 18.0 mph 43 % 0.0 in open2300-1.11 W/m2
06:12 4.1 °F -7.4 °F 1010.0 in NNW 1.4 mph 3.2 mph 43 % 0.0 in open2300-1.11 W/m2
07:12 3.8 °F -7.7 °F 1010.0 in NW 4.3 mph 4.3 mph 43 % 0.0 in open2300-1.11 W/m2
08:12 3.1 °F -7.8 °F 1010.7 in North 1.4 mph 4.0 mph 45 % 0.0 in open2300-1.11 W/m2
09:12 5.3 °F -6.7 °F 1011.1 in Calm   3.5 mph 42 % 0.0 in open2300-1.11 W/m2
10:12 5.6 °F -6.9 °F 1010.7 in North 4.3 mph 16.3 mph 40 % 0.0 in open2300-1.11 W/m2
11:12 8.1 °F -4.4 °F 1011.1 in ESE 3.2 mph 6.4 mph 41 % 0.0 in open2300-1.11 W/m2
12:12 9.5 °F -3.8 °F 1010.7 in Calm   6.8 mph 39 % 0.0 in open2300-1.11 W/m2
13:12 9.6 °F -3.7 °F 1009.7 in South 6.1 mph 7.2 mph 39 % 0.0 in open2300-1.11 W/m2
14:12 8.2 °F -4.3 °F 1009.7 in NW 25.3 mph 25.3 mph 41 % 0.0 in open2300-1.11 W/m2
15:12 8.5 °F -4.3 °F 1009.0 in North 1.8 mph 8.7 mph 40 % 0.0 in open2300-1.11 W/m2
16:12 8.3 °F -6.4 °F 1009.0 in West 9.0 mph 9.3 mph 35 % 0.0 in open2300-1.11 W/m2
17:12 7.8 °F -3.8 °F 1009.4 in Calm     44 % 0.0 in open2300-1.11 W/m2
18:12 7.4 °F -3.6 °F 1008.4 in Calm     46 % 0.0 in open2300-1.11 W/m2
19:12 7.3 °F -4.2 °F 1009.0 in NNW 1.4 mph 2.1 mph 44 % 0.0 in open2300-1.11 W/m2
20:12 6.5 °F -4.3 °F 1008.4 in Calm     46 % 0.0 in open2300-1.11 W/m2
21:12 6.1 °F -5.0 °F 1007.7 in Calm   1.4 mph 45 % 0.0 in open2300-1.11 W/m2
22:12 5.9 °F -4.9 °F 1007.7 in WNW 14.0 mph 14.0 mph 46 % 0.0 in open2300-1.11 W/m2
23:12 5.3 °F -5.8 °F 1007.7 in NNW 7.2 mph 12.2 mph 45 % 0.0 in open2300-1.11 W/m2
Observations météo à CASSIS
WU-History script by Weather Underground - 1 mb